Terminal Aerodrome Forecast
Issued by NWS

Home | Current Version | Previous Version | Text Only | Print | Product List | Glossary On
Versions: 1 2 3 4 5 6 7 8 9 10 11 12 13 14 15
000
FTUS41 KPBZ 271137
TAFHLG
TAF
KHLG 271137Z 2712/2812 18005KT P6SM BKN015
     FM271500 22010KT P6SM BKN050
     FM280300 23007KT P6SM VCSH OVC040
     FM280800 24005KT P6SM BKN080=

USA.gov is the U.S. government's official web portal to all federal, state and local government web resources and services.